sensor_id;sensor_type;location;lat;lon;timestamp;temperature;humidity
9810;DHT22;4944;52.514;13.192;2022-07-29T00:01:26;19.10;98.00
9810;DHT22;4944;52.514;13.192;2022-07-29T00:03:53;19.00;98.20
9810;DHT22;4944;52.514;13.192;2022-07-29T00:06:19;19.00;98.40
9810;DHT22;4944;52.514;13.192;2022-07-29T00:08:47;19.00;98.60
9810;DHT22;4944;52.514;13.192;2022-07-29T00:11:14;18.90;98.60
9810;DHT22;4944;52.514;13.192;2022-07-29T00:13:41;18.90;98.80
9810;DHT22;4944;52.514;13.192;2022-07-29T00:16:08;18.90;98.90
9810;DHT22;4944;52.514;13.192;2022-07-29T00:18:35;18.80;99.10
9810;DHT22;4944;52.514;13.192;2022-07-29T00:21:01;18.80;99.30
9810;DHT22;4944;52.514;13.192;2022-07-29T00:23:32;18.90;99.30
9810;DHT22;4944;52.514;13.192;2022-07-29T00:26:00;18.90;99.30
9810;DHT22;4944;52.514;13.192;2022-07-29T00:28:27;18.90;99.30
9810;DHT22;4944;52.514;13.192;2022-07-29T00:30:54;18.90;99.30
9810;DHT22;4944;52.514;13.192;2022-07-29T00:33:21;18.90;99.40
9810;DHT22;4944;52.514;13.192;2022-07-29T00:35:48;18.90;99.50
9810;DHT22;4944;52.514;13.192;2022-07-29T00:38:16;18.80;99.60
9810;DHT22;4944;52.514;13.192;2022-07-29T00:40:43;18.80;99.70
9810;DHT22;4944;52.514;13.192;2022-07-29T00:43:12;18.80;99.90
9810;DHT22;4944;52.514;13.192;2022-07-29T00:45:40;18.70;99.90
9810;DHT22;4944;52.514;13.192;2022-07-29T00:48:07;18.70;99.90
9810;DHT22;4944;52.514;13.192;2022-07-29T00:50:34;18.70;99.90
9810;DHT22;4944;52.514;13.192;2022-07-29T00:53:02;18.70;99.90
9810;DHT22;4944;52.514;13.192;2022-07-29T00:55:30;18.80;99.90
9810;DHT22;4944;52.514;13.192;2022-07-29T00:57:58;18.70;99.90
9810;DHT22;4944;52.514;13.192;2022-07-29T01:00:27;18.70;99.90
9810;DHT22;4944;52.514;13.192;2022-07-29T01:02:54;18.60;99.90
9810;DHT22;4944;52.514;13.192;2022-07-29T01:05:24;18.60;99.90
9810;DHT22;4944;52.514;13.192;2022-07-29T01:07:53;18.60;99.90
9810;DHT22;4944;52.514;13.192;2022-07-29T01:10:21;18.60;99.90
9810;DHT22;4944;52.514;13.192;2022-07-29T01:12:50;18.50;99.90
9810;DHT22;4944;52.514;13.192;2022-07-29T01:15:18;18.50;99.90
9810;DHT22;4944;52.514;13.192;2022-07-29T01:17:52;18.40;99.90
9810;DHT22;4944;52.514;13.192;2022-07-29T01:20:25;18.40;99.90
9810;DHT22;4944;52.514;13.192;2022-07-29T01:26:34;18.40;99.90
9810;DHT22;4944;52.514;13.192;2022-07-29T01:29:12;18.40;99.90
9810;DHT22;4944;52.514;13.192;2022-07-29T01:31:45;18.30;99.90
9810;DHT22;4944;52.514;13.192;2022-07-29T01:34:20;18.40;99.90
9810;DHT22;4944;52.514;13.192;2022-07-29T01:36:51;18.40;99.90
9810;DHT22;4944;52.514;13.192;2022-07-29T01:39:25;18.20;99.90
9810;DHT22;4944;52.514;13.192;2022-07-29T01:41:57;18.30;99.90
9810;DHT22;4944;52.514;13.192;2022-07-29T01:44:34;18.30;99.90
9810;DHT22;4944;52.514;13.192;2022-07-29T01:47:05;18.30;99.90
9810;DHT22;4944;52.514;13.192;2022-07-29T01:49:41;18.30;99.90
9810;DHT22;4944;52.514;13.192;2022-07-29T01:52:19;18.30;99.90
9810;DHT22;4944;52.514;13.192;2022-07-29T01:54:50;18.30;99.90
9810;DHT22;4944;52.514;13.192;2022-07-29T01:57:23;18.30;99.90
9810;DHT22;4944;52.514;13.192;2022-07-29T01:59:54;18.30;99.90
9810;DHT22;4944;52.514;13.192;2022-07-29T02:02:22;18.30;99.90
9810;DHT22;4944;52.514;13.192;2022-07-29T02:04:50;18.20;99.90
9810;DHT22;4944;52.514;13.192;2022-07-29T02:07:21;18.30;99.90
9810;DHT22;4944;52.514;13.192;2022-07-29T02:09:50;18.20;99.90
9810;DHT22;4944;52.514;13.192;2022-07-29T02:12:18;18.20;99.90
9810;DHT22;4944;52.514;13.192;2022-07-29T02:14:47;18.20;99.90
9810;DHT22;4944;52.514;13.192;2022-07-29T02:17:21;18.10;99.90
9810;DHT22;4944;52.514;13.192;2022-07-29T02:19:50;18.00;99.90
9810;DHT22;4944;52.514;13.192;2022-07-29T02:22:18;18.00;99.90
9810;DHT22;4944;52.514;13.192;2022-07-29T02:24:46;18.00;99.90
9810;DHT22;4944;52.514;13.192;2022-07-29T02:27:14;18.00;99.90
9810;DHT22;4944;52.514;13.192;2022-07-29T02:29:42;18.00;99.90
9810;DHT22;4944;52.514;13.192;2022-07-29T02:32:10;17.90;99.90
9810;DHT22;4944;52.514;13.192;2022-07-29T02:34:40;17.90;99.90
9810;DHT22;4944;52.514;13.192;2022-07-29T02:37:09;17.90;99.90
9810;DHT22;4944;52.514;13.192;2022-07-29T02:39:37;17.90;99.90
9810;DHT22;4944;52.514;13.192;2022-07-29T02:42:07;17.90;99.90
9810;DHT22;4944;52.514;13.192;2022-07-29T02:44:36;17.90;99.90
9810;DHT22;4944;52.514;13.192;2022-07-29T02:47:07;17.90;99.90
9810;DHT22;4944;52.514;13.192;2022-07-29T02:49:40;17.90;99.90
9810;DHT22;4944;52.514;13.192;2022-07-29T02:52:12;17.80;99.90
9810;DHT22;4944;52.514;13.192;2022-07-29T02:54:51;17.80;99.90
9810;DHT22;4944;52.514;13.192;2022-07-29T02:57:22;17.80;99.90
9810;DHT22;4944;52.514;13.192;2022-07-29T02:59:52;17.90;99.90
9810;DHT22;4944;52.514;13.192;2022-07-29T03:02:20;17.80;99.90
9810;DHT22;4944;52.514;13.192;2022-07-29T03:04:50;17.80;99.90
9810;DHT22;4944;52.514;13.192;2022-07-29T03:07:19;17.80;99.90
9810;DHT22;4944;52.514;13.192;2022-07-29T03:09:47;17.80;99.90
9810;DHT22;4944;52.514;13.192;2022-07-29T03:12:14;17.70;99.90
9810;DHT22;4944;52.514;13.192;2022-07-29T03:14:41;17.80;99.90
9810;DHT22;4944;52.514;13.192;2022-07-29T03:17:09;17.70;99.90
9810;DHT22;4944;52.514;13.192;2022-07-29T03:19:36;17.70;99.90
9810;DHT22;4944;52.514;13.192;2022-07-29T03:22:04;17.70;99.90
9810;DHT22;4944;52.514;13.192;2022-07-29T03:24:33;17.70;99.90
9810;DHT22;4944;52.514;13.192;2022-07-29T03:27:01;17.80;99.90
9810;DHT22;4944;52.514;13.192;2022-07-29T03:29:28;17.80;99.90
9810;DHT22;4944;52.514;13.192;2022-07-29T03:31:55;17.80;99.90
9810;DHT22;4944;52.514;13.192;2022-07-29T03:34:22;17.70;99.90
9810;DHT22;4944;52.514;13.192;2022-07-29T03:36:49;17.60;99.90
9810;DHT22;4944;52.514;13.192;2022-07-29T03:39:21;17.50;99.90
9810;DHT22;4944;52.514;13.192;2022-07-29T03:41:53;17.50;99.90
9810;DHT22;4944;52.514;13.192;2022-07-29T03:44:22;17.60;99.90
9810;DHT22;4944;52.514;13.192;2022-07-29T03:46:51;17.50;99.90
9810;DHT22;4944;52.514;13.192;2022-07-29T03:49:19;17.50;99.90
9810;DHT22;4944;52.514;13.192;2022-07-29T03:51:48;17.50;99.90
9810;DHT22;4944;52.514;13.192;2022-07-29T03:54:15;17.50;99.90
9810;DHT22;4944;52.514;13.192;2022-07-29T03:56:45;17.40;99.90
9810;DHT22;4944;52.514;13.192;2022-07-29T03:59:13;17.30;99.90
9810;DHT22;4944;52.514;13.192;2022-07-29T04:01:41;17.20;99.90
9810;DHT22;4944;52.514;13.192;2022-07-29T04:04:08;17.20;99.90
9810;DHT22;4944;52.514;13.192;2022-07-29T04:06:40;17.20;99.90
9810;DHT22;4944;52.514;13.192;2022-07-29T04:09:07;17.20;99.90
9810;DHT22;4944;52.514;13.192;2022-07-29T04:11:35;17.20;99.90
9810;DHT22;4944;52.514;13.192;2022-07-29T04:14:03;17.30;99.90
9810;DHT22;4944;52.514;13.192;2022-07-29T04:16:30;17.20;99.90
9810;DHT22;4944;52.514;13.192;2022-07-29T04:18:57;17.20;99.90
9810;DHT22;4944;52.514;13.192;2022-07-29T04:21:24;17.20;99.90
9810;DHT22;4944;52.514;13.192;2022-07-29T04:23:51;17.30;99.90
9810;DHT22;4944;52.514;13.192;2022-07-29T04:26:18;17.30;99.90
9810;DHT22;4944;52.514;13.192;2022-07-29T04:28:46;17.40;99.90
9810;DHT22;4944;52.514;13.192;2022-07-29T04:31:14;17.40;99.90
9810;DHT22;4944;52.514;13.192;2022-07-29T04:33:41;17.40;99.90
9810;DHT22;4944;52.514;13.192;2022-07-29T04:36:08;17.40;99.90
9810;DHT22;4944;52.514;13.192;2022-07-29T04:38:37;17.40;99.90
9810;DHT22;4944;52.514;13.192;2022-07-29T04:41:06;17.40;99.90
9810;DHT22;4944;52.514;13.192;2022-07-29T04:43:33;17.40;99.90
9810;DHT22;4944;52.514;13.192;2022-07-29T04:46:00;17.50;99.90
9810;DHT22;4944;52.514;13.192;2022-07-29T04:48:31;17.50;99.90
9810;DHT22;4944;52.514;13.192;2022-07-29T04:50:58;17.50;99.90
9810;DHT22;4944;52.514;13.192;2022-07-29T04:53:25;17.60;99.90
9810;DHT22;4944;52.514;13.192;2022-07-29T04:55:52;17.50;99.90
9810;DHT22;4944;52.514;13.192;2022-07-29T04:58:19;17.60;99.90
9810;DHT22;4944;52.514;13.192;2022-07-29T05:00:45;17.60;99.90
9810;DHT22;4944;52.514;13.192;2022-07-29T05:03:12;17.60;99.90
9810;DHT22;4944;52.514;13.192;2022-07-29T05:05:40;17.60;99.90
9810;DHT22;4944;52.514;13.192;2022-07-29T05:08:07;17.60;99.90
9810;DHT22;4944;52.514;13.192;2022-07-29T05:10:34;17.70;99.90
9810;DHT22;4944;52.514;13.192;2022-07-29T05:13:04;17.80;99.90
9810;DHT22;4944;52.514;13.192;2022-07-29T05:15:30;17.80;99.90
9810;DHT22;4944;52.514;13.192;2022-07-29T05:17:57;17.80;99.90
9810;DHT22;4944;52.514;13.192;2022-07-29T05:20:24;17.90;99.90
9810;DHT22;4944;52.514;13.192;2022-07-29T05:22:55;18.00;99.90
9810;DHT22;4944;52.514;13.192;2022-07-29T05:25:22;18.00;99.90
9810;DHT22;4944;52.514;13.192;2022-07-29T05:27:49;18.00;99.90
9810;DHT22;4944;52.514;13.192;2022-07-29T05:30:16;18.00;99.90
9810;DHT22;4944;52.514;13.192;2022-07-29T05:32:42;18.00;99.90
9810;DHT22;4944;52.514;13.192;2022-07-29T05:35:09;18.10;99.90
9810;DHT22;4944;52.514;13.192;2022-07-29T05:37:37;18.10;99.90
9810;DHT22;4944;52.514;13.192;2022-07-29T05:40:06;18.10;99.90
9810;DHT22;4944;52.514;13.192;2022-07-29T05:42:33;18.10;99.90
9810;DHT22;4944;52.514;13.192;2022-07-29T05:45:01;18.00;99.90
9810;DHT22;4944;52.514;13.192;2022-07-29T05:47:28;18.10;99.90
9810;DHT22;4944;52.514;13.192;2022-07-29T05:49:55;18.20;99.90
9810;DHT22;4944;52.514;13.192;2022-07-29T05:52:22;18.20;99.90
9810;DHT22;4944;52.514;13.192;2022-07-29T05:54:49;18.20;99.90
9810;DHT22;4944;52.514;13.192;2022-07-29T05:57:18;18.20;99.90
9810;DHT22;4944;52.514;13.192;2022-07-29T05:59:45;18.30;99.90
9810;DHT22;4944;52.514;13.192;2022-07-29T06:02:12;18.30;99.90
9810;DHT22;4944;52.514;13.192;2022-07-29T06:04:39;18.40;99.90
9810;DHT22;4944;52.514;13.192;2022-07-29T06:07:06;18.50;99.90
9810;DHT22;4944;52.514;13.192;2022-07-29T06:09:33;18.50;99.90
9810;DHT22;4944;52.514;13.192;2022-07-29T06:12:00;18.50;99.90
9810;DHT22;4944;52.514;13.192;2022-07-29T06:14:28;18.50;99.90
9810;DHT22;4944;52.514;13.192;2022-07-29T06:16:55;18.60;99.90
9810;DHT22;4944;52.514;13.192;2022-07-29T06:19:22;18.60;99.90
9810;DHT22;4944;52.514;13.192;2022-07-29T06:21:49;18.60;99.90
9810;DHT22;4944;52.514;13.192;2022-07-29T06:24:16;18.70;99.90
9810;DHT22;4944;52.514;13.192;2022-07-29T06:26:42;18.70;99.90
9810;DHT22;4944;52.514;13.192;2022-07-29T06:29:11;18.70;99.90
9810;DHT22;4944;52.514;13.192;2022-07-29T06:31:39;18.80;99.90
9810;DHT22;4944;52.514;13.192;2022-07-29T06:34:06;18.80;99.90
9810;DHT22;4944;52.514;13.192;2022-07-29T06:36:35;18.80;99.90
9810;DHT22;4944;52.514;13.192;2022-07-29T06:39:04;18.90;99.90
9810;DHT22;4944;52.514;13.192;2022-07-29T06:41:31;19.00;99.90
9810;DHT22;4944;52.514;13.192;2022-07-29T06:43:58;19.00;99.90
9810;DHT22;4944;52.514;13.192;2022-07-29T06:46:25;19.00;99.90
9810;DHT22;4944;52.514;13.192;2022-07-29T06:48:54;19.10;99.90
9810;DHT22;4944;52.514;13.192;2022-07-29T06:51:21;19.10;99.90
9810;DHT22;4944;52.514;13.192;2022-07-29T06:53:48;19.20;99.90
9810;DHT22;4944;52.514;13.192;2022-07-29T06:56:15;19.20;99.90
9810;DHT22;4944;52.514;13.192;2022-07-29T06:58:41;19.20;99.90
9810;DHT22;4944;52.514;13.192;2022-07-29T07:01:08;19.30;99.90
9810;DHT22;4944;52.514;13.192;2022-07-29T07:03:35;19.40;99.90
9810;DHT22;4944;52.514;13.192;2022-07-29T07:06:06;19.40;99.90
9810;DHT22;4944;52.514;13.192;2022-07-29T07:08:33;19.40;99.90
9810;DHT22;4944;52.514;13.192;2022-07-29T07:10:59;19.50;99.90
9810;DHT22;4944;52.514;13.192;2022-07-29T07:13:26;19.50;99.90
9810;DHT22;4944;52.514;13.192;2022-07-29T07:15:53;19.60;99.90
9810;DHT22;4944;52.514;13.192;2022-07-29T07:18:20;19.60;99.90
9810;DHT22;4944;52.514;13.192;2022-07-29T07:20:47;19.60;99.90
9810;DHT22;4944;52.514;13.192;2022-07-29T07:23:15;19.70;99.90
9810;DHT22;4944;52.514;13.192;2022-07-29T07:25:42;19.70;99.90
9810;DHT22;4944;52.514;13.192;2022-07-29T07:28:09;19.80;99.90
9810;DHT22;4944;52.514;13.192;2022-07-29T07:30:36;19.80;99.90
9810;DHT22;4944;52.514;13.192;2022-07-29T07:33:03;19.90;99.90
9810;DHT22;4944;52.514;13.192;2022-07-29T07:35:30;19.90;99.90
9810;DHT22;4944;52.514;13.192;2022-07-29T07:37:57;20.00;99.90
9810;DHT22;4944;52.514;13.192;2022-07-29T07:40:25;20.00;99.90
9810;DHT22;4944;52.514;13.192;2022-07-29T07:42:52;20.10;99.90
9810;DHT22;4944;52.514;13.192;2022-07-29T07:45:19;20.10;99.90
9810;DHT22;4944;52.514;13.192;2022-07-29T07:47:45;20.10;99.90
9810;DHT22;4944;52.514;13.192;2022-07-29T07:50:12;20.10;99.90
9810;DHT22;4944;52.514;13.192;2022-07-29T07:52:47;20.20;99.90
9810;DHT22;4944;52.514;13.192;2022-07-29T07:55:14;20.20;99.90
9810;DHT22;4944;52.514;13.192;2022-07-29T07:57:43;20.20;99.90
9810;DHT22;4944;52.514;13.192;2022-07-29T08:00:10;20.30;99.90
9810;DHT22;4944;52.514;13.192;2022-07-29T08:02:38;20.20;99.90
9810;DHT22;4944;52.514;13.192;2022-07-29T08:05:06;20.30;99.90
9810;DHT22;4944;52.514;13.192;2022-07-29T08:07:33;20.30;99.90
9810;DHT22;4944;52.514;13.192;2022-07-29T08:10:00;20.40;99.90
9810;DHT22;4944;52.514;13.192;2022-07-29T08:12:26;20.40;99.90
9810;DHT22;4944;52.514;13.192;2022-07-29T08:14:55;20.50;99.90
9810;DHT22;4944;52.514;13.192;2022-07-29T08:17:21;20.50;99.90
9810;DHT22;4944;52.514;13.192;2022-07-29T08:19:48;20.60;99.90
9810;DHT22;4944;52.514;13.192;2022-07-29T08:22:15;20.60;99.90
9810;DHT22;4944;52.514;13.192;2022-07-29T08:24:42;20.80;99.90
9810;DHT22;4944;52.514;13.192;2022-07-29T08:27:09;20.90;99.90
9810;DHT22;4944;52.514;13.192;2022-07-29T08:29:36;20.90;99.90
9810;DHT22;4944;52.514;13.192;2022-07-29T08:32:05;21.10;99.30
9810;DHT22;4944;52.514;13.192;2022-07-29T08:34:32;21.10;99.60
9810;DHT22;4944;52.514;13.192;2022-07-29T08:36:59;21.20;99.60
9810;DHT22;4944;52.514;13.192;2022-07-29T08:39:26;21.40;98.90
9810;DHT22;4944;52.514;13.192;2022-07-29T08:41:53;21.40;98.80
9810;DHT22;4944;52.514;13.192;2022-07-29T08:44:20;21.40;98.50
9810;DHT22;4944;52.514;13.192;2022-07-29T08:46:48;21.50;98.40
9810;DHT22;4944;52.514;13.192;2022-07-29T08:49:17;21.60;98.40
9810;DHT22;4944;52.514;13.192;2022-07-29T08:51:44;21.70;98.20
9810;DHT22;4944;52.514;13.192;2022-07-29T08:54:11;21.70;98.10
9810;DHT22;4944;52.514;13.192;2022-07-29T08:56:43;21.80;97.90
9810;DHT22;4944;52.514;13.192;2022-07-29T08:59:10;21.90;97.70
9810;DHT22;4944;52.514;13.192;2022-07-29T09:01:38;22.00;97.20
9810;DHT22;4944;52.514;13.192;2022-07-29T09:04:10;22.10;96.50
9810;DHT22;4944;52.514;13.192;2022-07-29T09:06:42;22.20;96.30
9810;DHT22;4944;52.514;13.192;2022-07-29T09:09:09;22.30;96.20
9810;DHT22;4944;52.514;13.192;2022-07-29T09:11:36;22.40;96.30
9810;DHT22;4944;52.514;13.192;2022-07-29T09:14:03;22.50;95.70
9810;DHT22;4944;52.514;13.192;2022-07-29T09:16:51;22.60;95.80
9810;DHT22;4944;52.514;13.192;2022-07-29T09:19:28;22.70;95.30
9810;DHT22;4944;52.514;13.192;2022-07-29T09:21:57;22.80;95.10
9810;DHT22;4944;52.514;13.192;2022-07-29T09:24:25;22.90;95.30
9810;DHT22;4944;52.514;13.192;2022-07-29T09:26:52;23.00;94.90
9810;DHT22;4944;52.514;13.192;2022-07-29T09:29:23;23.20;95.10
9810;DHT22;4944;52.514;13.192;2022-07-29T09:31:51;23.40;94.30
9810;DHT22;4944;52.514;13.192;2022-07-29T09:34:22;23.40;94.10
9810;DHT22;4944;52.514;13.192;2022-07-29T09:36:50;23.40;94.10
9810;DHT22;4944;52.514;13.192;2022-07-29T09:39:29;23.50;94.20
9810;DHT22;4944;52.514;13.192;2022-07-29T09:41:57;23.60;93.40
9810;DHT22;4944;52.514;13.192;2022-07-29T09:44:25;23.60;93.40
9810;DHT22;4944;52.514;13.192;2022-07-29T09:46:56;23.50;93.50
9810;DHT22;4944;52.514;13.192;2022-07-29T09:49:24;23.40;94.00
9810;DHT22;4944;52.514;13.192;2022-07-29T09:52:05;23.50;94.20
9810;DHT22;4944;52.514;13.192;2022-07-29T09:54:35;23.60;93.50
9810;DHT22;4944;52.514;13.192;2022-07-29T09:57:05;23.60;93.30
9810;DHT22;4944;52.514;13.192;2022-07-29T09:59:32;23.60;93.00
9810;DHT22;4944;52.514;13.192;2022-07-29T10:01:59;23.80;92.80
9810;DHT22;4944;52.514;13.192;2022-07-29T10:04:39;23.90;92.50
9810;DHT22;4944;52.514;13.192;2022-07-29T10:07:07;24.00;93.10
9810;DHT22;4944;52.514;13.192;2022-07-29T10:09:35;24.10;92.60
9810;DHT22;4944;52.514;13.192;2022-07-29T10:12:04;24.20;92.00
9810;DHT22;4944;52.514;13.192;2022-07-29T10:14:32;24.30;91.90
9810;DHT22;4944;52.514;13.192;2022-07-29T10:16:59;24.40;91.10
9810;DHT22;4944;52.514;13.192;2022-07-29T10:19:28;24.50;90.60
9810;DHT22;4944;52.514;13.192;2022-07-29T10:21:56;24.50;91.00
9810;DHT22;4944;52.514;13.192;2022-07-29T10:24:25;24.40;91.00
9810;DHT22;4944;52.514;13.192;2022-07-29T10:26:54;24.40;90.80
9810;DHT22;4944;52.514;13.192;2022-07-29T10:29:21;24.40;90.60
9810;DHT22;4944;52.514;13.192;2022-07-29T10:31:52;24.40;91.00
9810;DHT22;4944;52.514;13.192;2022-07-29T10:34:32;24.40;90.60
9810;DHT22;4944;52.514;13.192;2022-07-29T10:37:08;24.40;90.70
9810;DHT22;4944;52.514;13.192;2022-07-29T10:39:47;24.50;90.50
9810;DHT22;4944;52.514;13.192;2022-07-29T10:42:20;24.40;90.40
9810;DHT22;4944;52.514;13.192;2022-07-29T10:44:50;24.40;90.50
9810;DHT22;4944;52.514;13.192;2022-07-29T10:47:22;24.40;89.60
9810;DHT22;4944;52.514;13.192;2022-07-29T10:49:56;24.50;90.00
9810;DHT22;4944;52.514;13.192;2022-07-29T10:52:23;24.50;90.20
9810;DHT22;4944;52.514;13.192;2022-07-29T10:54:53;24.60;90.20
9810;DHT22;4944;52.514;13.192;2022-07-29T10:57:26;24.80;89.90
9810;DHT22;4944;52.514;13.192;2022-07-29T11:02:57;25.10;90.00
9810;DHT22;4944;52.514;13.192;2022-07-29T11:05:25;25.00;90.10
9810;DHT22;4944;52.514;13.192;2022-07-29T11:08:23;25.10;90.40
9810;DHT22;4944;52.514;13.192;2022-07-29T11:10:53;25.30;88.80
9810;DHT22;4944;52.514;13.192;2022-07-29T11:13:49;25.30;89.30
9810;DHT22;4944;52.514;13.192;2022-07-29T11:16:18;25.40;89.30
9810;DHT22;4944;52.514;13.192;2022-07-29T11:19:21;25.60;88.60
9810;DHT22;4944;52.514;13.192;2022-07-29T11:21:48;25.80;88.50
9810;DHT22;4944;52.514;13.192;2022-07-29T11:24:18;26.00;88.10
9810;DHT22;4944;52.514;13.192;2022-07-29T11:27:09;26.10;87.30
9810;DHT22;4944;52.514;13.192;2022-07-29T11:29:40;26.40;86.70
9810;DHT22;4944;52.514;13.192;2022-07-29T11:32:11;26.50;86.90
9810;DHT22;4944;52.514;13.192;2022-07-29T11:34:39;26.80;86.30
9810;DHT22;4944;52.514;13.192;2022-07-29T11:37:25;27.10;85.50
9810;DHT22;4944;52.514;13.192;2022-07-29T11:40:11;27.20;84.50
9810;DHT22;4944;52.514;13.192;2022-07-29T11:42:43;27.40;84.60
9810;DHT22;4944;52.514;13.192;2022-07-29T11:45:13;27.50;85.20
9810;DHT22;4944;52.514;13.192;2022-07-29T11:47:47;27.70;84.50
9810;DHT22;4944;52.514;13.192;2022-07-29T11:50:15;27.80;84.80
9810;DHT22;4944;52.514;13.192;2022-07-29T11:52:44;27.90;83.60
9810;DHT22;4944;52.514;13.192;2022-07-29T11:55:13;27.80;83.20
9810;DHT22;4944;52.514;13.192;2022-07-29T11:57:47;27.70;83.20
9810;DHT22;4944;52.514;13.192;2022-07-29T12:00:24;27.60;83.60
9810;DHT22;4944;52.514;13.192;2022-07-29T12:02:51;27.60;84.40
9810;DHT22;4944;52.514;13.192;2022-07-29T12:05:18;27.60;84.30
9810;DHT22;4944;52.514;13.192;2022-07-29T12:07:46;27.80;85.60
9810;DHT22;4944;52.514;13.192;2022-07-29T12:10:14;27.80;85.10
9810;DHT22;4944;52.514;13.192;2022-07-29T12:12:41;28.00;85.00
9810;DHT22;4944;52.514;13.192;2022-07-29T12:15:15;28.10;85.20
9810;DHT22;4944;52.514;13.192;2022-07-29T12:17:47;28.30;84.10
9810;DHT22;4944;52.514;13.192;2022-07-29T12:20:23;28.40;83.80
9810;DHT22;4944;52.514;13.192;2022-07-29T12:22:49;28.60;85.00
9810;DHT22;4944;52.514;13.192;2022-07-29T12:25:19;28.80;84.70
9810;DHT22;4944;52.514;13.192;2022-07-29T12:27:46;28.90;84.80
9810;DHT22;4944;52.514;13.192;2022-07-29T12:30:14;29.10;84.30
9810;DHT22;4944;52.514;13.192;2022-07-29T12:32:43;29.10;82.40
9810;DHT22;4944;52.514;13.192;2022-07-29T12:35:12;29.20;83.50
9810;DHT22;4944;52.514;13.192;2022-07-29T12:37:41;29.30;83.60
9810;DHT22;4944;52.514;13.192;2022-07-29T12:40:11;29.30;81.70
9810;DHT22;4944;52.514;13.192;2022-07-29T12:42:39;29.40;83.20
9810;DHT22;4944;52.514;13.192;2022-07-29T12:45:07;29.40;85.00
9810;DHT22;4944;52.514;13.192;2022-07-29T12:47:51;29.30;83.90
9810;DHT22;4944;52.514;13.192;2022-07-29T12:50:20;29.20;85.00
9810;DHT22;4944;52.514;13.192;2022-07-29T12:52:47;29.30;84.30
9810;DHT22;4944;52.514;13.192;2022-07-29T12:55:14;29.20;83.80
9810;DHT22;4944;52.514;13.192;2022-07-29T12:57:45;29.30;84.70
9810;DHT22;4944;52.514;13.192;2022-07-29T13:00:14;29.40;84.80
9810;DHT22;4944;52.514;13.192;2022-07-29T13:02:42;29.50;84.10
9810;DHT22;4944;52.514;13.192;2022-07-29T13:05:10;29.60;83.90
9810;DHT22;4944;52.514;13.192;2022-07-29T13:07:39;29.50;83.40
9810;DHT22;4944;52.514;13.192;2022-07-29T13:10:11;29.30;82.80
9810;DHT22;4944;52.514;13.192;2022-07-29T13:12:38;29.30;83.40
9810;DHT22;4944;52.514;13.192;2022-07-29T13:15:13;29.40;84.00
9810;DHT22;4944;52.514;13.192;2022-07-29T13:17:41;29.30;83.10
9810;DHT22;4944;52.514;13.192;2022-07-29T13:20:10;29.50;83.50
9810;DHT22;4944;52.514;13.192;2022-07-29T13:22:41;29.70;83.30
9810;DHT22;4944;52.514;13.192;2022-07-29T13:25:09;29.80;83.90
9810;DHT22;4944;52.514;13.192;2022-07-29T13:27:37;29.90;84.80
9810;DHT22;4944;52.514;13.192;2022-07-29T13:30:06;29.90;83.50
9810;DHT22;4944;52.514;13.192;2022-07-29T13:32:33;29.80;83.10
9810;DHT22;4944;52.514;13.192;2022-07-29T13:35:07;29.50;82.50
9810;DHT22;4944;52.514;13.192;2022-07-29T13:37:35;29.40;82.40
9810;DHT22;4944;52.514;13.192;2022-07-29T13:40:06;29.30;82.00
9810;DHT22;4944;52.514;13.192;2022-07-29T13:42:33;29.10;81.70
9810;DHT22;4944;52.514;13.192;2022-07-29T13:45:00;28.90;82.40
9810;DHT22;4944;52.514;13.192;2022-07-29T13:47:27;28.90;82.40
9810;DHT22;4944;52.514;13.192;2022-07-29T13:49:54;29.10;82.10
9810;DHT22;4944;52.514;13.192;2022-07-29T13:52:21;29.30;83.40
9810;DHT22;4944;52.514;13.192;2022-07-29T13:54:48;29.70;83.50
9810;DHT22;4944;52.514;13.192;2022-07-29T13:57:16;30.00;83.60
9810;DHT22;4944;52.514;13.192;2022-07-29T13:59:44;30.20;82.70
9810;DHT22;4944;52.514;13.192;2022-07-29T14:02:11;30.10;81.40
9810;DHT22;4944;52.514;13.192;2022-07-29T14:04:39;29.80;81.50
9810;DHT22;4944;52.514;13.192;2022-07-29T14:07:07;29.70;82.60
9810;DHT22;4944;52.514;13.192;2022-07-29T14:09:34;29.80;82.20
9810;DHT22;4944;52.514;13.192;2022-07-29T14:12:00;30.00;82.80
9810;DHT22;4944;52.514;13.192;2022-07-29T14:14:29;30.10;82.70
9810;DHT22;4944;52.514;13.192;2022-07-29T14:16:57;29.90;81.80
9810;DHT22;4944;52.514;13.192;2022-07-29T14:19:23;29.80;82.40
9810;DHT22;4944;52.514;13.192;2022-07-29T14:21:50;29.40;82.00
9810;DHT22;4944;52.514;13.192;2022-07-29T14:24:17;29.50;82.10
9810;DHT22;4944;52.514;13.192;2022-07-29T14:26:44;29.80;81.30
9810;DHT22;4944;52.514;13.192;2022-07-29T14:29:11;29.90;81.70
9810;DHT22;4944;52.514;13.192;2022-07-29T14:31:39;30.10;81.30
9810;DHT22;4944;52.514;13.192;2022-07-29T14:34:05;30.30;81.30
9810;DHT22;4944;52.514;13.192;2022-07-29T14:36:32;30.50;81.20
9810;DHT22;4944;52.514;13.192;2022-07-29T14:39:00;30.60;80.30
9810;DHT22;4944;52.514;13.192;2022-07-29T14:41:27;30.60;79.80
9810;DHT22;4944;52.514;13.192;2022-07-29T14:43:55;30.40;80.60
9810;DHT22;4944;52.514;13.192;2022-07-29T14:46:22;30.30;81.30
9810;DHT22;4944;52.514;13.192;2022-07-29T14:48:50;30.30;80.90
9810;DHT22;4944;52.514;13.192;2022-07-29T14:51:16;30.40;80.10
9810;DHT22;4944;52.514;13.192;2022-07-29T14:53:43;30.60;79.60
9810;DHT22;4944;52.514;13.192;2022-07-29T14:56:10;30.80;79.50
9810;DHT22;4944;52.514;13.192;2022-07-29T14:58:37;30.90;80.00
9810;DHT22;4944;52.514;13.192;2022-07-29T15:01:04;31.00;79.80
9810;DHT22;4944;52.514;13.192;2022-07-29T15:03:31;31.10;78.90
9810;DHT22;4944;52.514;13.192;2022-07-29T15:05:59;31.20;78.80
9810;DHT22;4944;52.514;13.192;2022-07-29T15:08:30;31.20;78.40
9810;DHT22;4944;52.514;13.192;2022-07-29T15:10:57;31.40;77.80
9810;DHT22;4944;52.514;13.192;2022-07-29T15:13:24;31.50;77.50
9810;DHT22;4944;52.514;13.192;2022-07-29T15:15:51;31.50;77.00
9810;DHT22;4944;52.514;13.192;2022-07-29T15:18:18;31.60;75.40
9810;DHT22;4944;52.514;13.192;2022-07-29T15:20:45;31.60;75.60
9810;DHT22;4944;52.514;13.192;2022-07-29T15:23:13;31.60;76.30
9810;DHT22;4944;52.514;13.192;2022-07-29T15:25:40;31.50;75.80
9810;DHT22;4944;52.514;13.192;2022-07-29T15:28:06;31.50;75.60
9810;DHT22;4944;52.514;13.192;2022-07-29T15:30:34;31.50;75.50
9810;DHT22;4944;52.514;13.192;2022-07-29T15:33:06;31.70;75.10
9810;DHT22;4944;52.514;13.192;2022-07-29T15:35:33;31.80;75.00
9810;DHT22;4944;52.514;13.192;2022-07-29T15:38:00;31.80;75.40
9810;DHT22;4944;52.514;13.192;2022-07-29T15:40:29;31.80;76.40
9810;DHT22;4944;52.514;13.192;2022-07-29T15:42:56;31.80;76.60
9810;DHT22;4944;52.514;13.192;2022-07-29T15:45:26;31.80;76.50
9810;DHT22;4944;52.514;13.192;2022-07-29T15:47:53;31.70;76.50
9810;DHT22;4944;52.514;13.192;2022-07-29T15:50:20;31.60;76.70
9810;DHT22;4944;52.514;13.192;2022-07-29T15:52:46;31.30;75.90
9810;DHT22;4944;52.514;13.192;2022-07-29T15:55:13;31.20;76.50
9810;DHT22;4944;52.514;13.192;2022-07-29T15:57:42;31.00;76.20
9810;DHT22;4944;52.514;13.192;2022-07-29T16:00:10;30.90;75.60
9810;DHT22;4944;52.514;13.192;2022-07-29T16:02:37;31.00;76.10